Bienville, Louisiana
Current Conditions -  °F | °C
As of 1:55 PM on Friday 24 Oct 2014 (Local Time) from KRSN Reporting Station
Clear Clear  
Wind Chill: 71°   Ceiling: Unl
Heat Index: 71°   Visibility: 10mi
Dew Point: 49°   Wind: 3mph
Humidity: 45%   Direction: 320°NW
Pressure: 30.17"   Gusts: NA
Location:  32.36°N, 92.98°W
Report Text: KRSN 241855Z AUTO 32003KT 10SM CLR 22/09 A3017 RMK AO2 T02190094
Loading
Personal Weather Stations






























Interactive Weather Map
Tropical Storm Tracking
New forecast layout! Learn more

10-Day Weather Forecast

Advertisements
Track Severe Weather on mobile